sensor_id;sensor_type;location;lat;lon;timestamp;temperature;humidity
59881;DHT22;45751;51.380;10.326;2023-01-13T00:00:08;8.20;99.90
59881;DHT22;45751;51.380;10.326;2023-01-13T00:02:39;8.10;99.90
59881;DHT22;45751;51.380;10.326;2023-01-13T00:05:06;8.20;99.90
59881;DHT22;45751;51.380;10.326;2023-01-13T00:07:33;8.10;99.90
59881;DHT22;45751;51.380;10.326;2023-01-13T00:10:00;8.10;99.90
59881;DHT22;45751;51.380;10.326;2023-01-13T00:12:27;8.20;99.90
59881;DHT22;45751;51.380;10.326;2023-01-13T00:14:54;8.10;99.90
59881;DHT22;45751;51.380;10.326;2023-01-13T00:17:21;8.10;99.90
59881;DHT22;45751;51.380;10.326;2023-01-13T00:19:48;8.20;99.90
59881;DHT22;45751;51.380;10.326;2023-01-13T00:22:15;8.10;99.90
59881;DHT22;45751;51.380;10.326;2023-01-13T00:24:42;8.10;99.90
59881;DHT22;45751;51.380;10.326;2023-01-13T00:27:09;8.10;99.90
59881;DHT22;45751;51.380;10.326;2023-01-13T00:29:36;8.10;99.90
59881;DHT22;45751;51.380;10.326;2023-01-13T00:32:03;8.20;99.90
59881;DHT22;45751;51.380;10.326;2023-01-13T00:34:30;8.10;99.90
59881;DHT22;45751;51.380;10.326;2023-01-13T00:36:57;8.10;99.90
59881;DHT22;45751;51.380;10.326;2023-01-13T00:39:24;8.10;99.90
59881;DHT22;45751;51.380;10.326;2023-01-13T00:41:51;8.10;99.90
59881;DHT22;45751;51.380;10.326;2023-01-13T00:44:36;8.10;99.90
59881;DHT22;45751;51.380;10.326;2023-01-13T00:47:03;8.20;99.90
59881;DHT22;45751;51.380;10.326;2023-01-13T00:49:30;8.10;99.90
59881;DHT22;45751;51.380;10.326;2023-01-13T00:51:57;8.10;99.90
59881;DHT22;45751;51.380;10.326;2023-01-13T00:54:24;8.10;99.90
59881;DHT22;45751;51.380;10.326;2023-01-13T00:56:51;8.10;99.90
59881;DHT22;45751;51.380;10.326;2023-01-13T00:59:17;8.10;99.90
59881;DHT22;45751;51.380;10.326;2023-01-13T01:01:44;8.20;99.90
59881;DHT22;45751;51.380;10.326;2023-01-13T01:04:12;8.20;99.90
59881;DHT22;45751;51.380;10.326;2023-01-13T01:06:38;8.20;99.90
59881;DHT22;45751;51.380;10.326;2023-01-13T01:09:05;8.20;99.90
59881;DHT22;45751;51.380;10.326;2023-01-13T01:11:33;8.20;99.90
59881;DHT22;45751;51.380;10.326;2023-01-13T01:14:01;8.20;99.90
59881;DHT22;45751;51.380;10.326;2023-01-13T01:16:30;8.30;99.90
59881;DHT22;45751;51.380;10.326;2023-01-13T01:18:58;8.20;99.90
59881;DHT22;45751;51.380;10.326;2023-01-13T01:21:26;8.20;99.90
59881;DHT22;45751;51.380;10.326;2023-01-13T01:23:54;8.20;99.90
59881;DHT22;45751;51.380;10.326;2023-01-13T01:26:23;8.20;99.90
59881;DHT22;45751;51.380;10.326;2023-01-13T01:28:53;8.20;99.90
59881;DHT22;45751;51.380;10.326;2023-01-13T01:31:25;8.20;99.90
59881;DHT22;45751;51.380;10.326;2023-01-13T01:33:53;8.20;99.90
59881;DHT22;45751;51.380;10.326;2023-01-13T01:36:22;8.20;99.90
59881;DHT22;45751;51.380;10.326;2023-01-13T01:38:49;8.20;99.90
59881;DHT22;45751;51.380;10.326;2023-01-13T01:41:19;8.20;99.90
59881;DHT22;45751;51.380;10.326;2023-01-13T01:52:08;8.30;99.90
59881;DHT22;45751;51.380;10.326;2023-01-13T01:57:09;8.30;99.90
59881;DHT22;45751;51.380;10.326;2023-01-13T01:59:38;8.30;99.90
59881;DHT22;45751;51.380;10.326;2023-01-13T02:02:05;8.30;99.90
59881;DHT22;45751;51.380;10.326;2023-01-13T02:04:36;8.30;99.90
59881;DHT22;45751;51.380;10.326;2023-01-13T02:07:05;8.40;99.90
59881;DHT22;45751;51.380;10.326;2023-01-13T02:09:32;8.30;99.90
59881;DHT22;45751;51.380;10.326;2023-01-13T02:12:00;8.30;99.90
59881;DHT22;45751;51.380;10.326;2023-01-13T02:14:46;8.30;99.90
59881;DHT22;45751;51.380;10.326;2023-01-13T02:20:28;8.30;99.90
59881;DHT22;45751;51.380;10.326;2023-01-13T02:25:47;8.40;99.90
59881;DHT22;45751;51.380;10.326;2023-01-13T02:31:35;8.30;99.90
59881;DHT22;45751;51.380;10.326;2023-01-13T02:34:18;8.40;99.90
59881;DHT22;45751;51.380;10.326;2023-01-13T02:36:49;8.40;99.90
59881;DHT22;45751;51.380;10.326;2023-01-13T02:39:32;8.30;99.90
59881;DHT22;45751;51.380;10.326;2023-01-13T02:42:10;8.30;99.90
59881;DHT22;45751;51.380;10.326;2023-01-13T02:45:05;8.30;99.90
59881;DHT22;45751;51.380;10.326;2023-01-13T02:47:36;8.30;99.90
59881;DHT22;45751;51.380;10.326;2023-01-13T02:50:09;8.30;99.90
59881;DHT22;45751;51.380;10.326;2023-01-13T02:52:43;8.30;99.90
59881;DHT22;45751;51.380;10.326;2023-01-13T02:55:21;8.30;99.90
59881;DHT22;45751;51.380;10.326;2023-01-13T02:57:51;8.30;99.90
59881;DHT22;45751;51.380;10.326;2023-01-13T03:00:19;8.20;99.90
59881;DHT22;45751;51.380;10.326;2023-01-13T03:02:47;8.30;99.90
59881;DHT22;45751;51.380;10.326;2023-01-13T03:05:15;8.30;99.90
59881;DHT22;45751;51.380;10.326;2023-01-13T03:08:17;8.40;99.90
59881;DHT22;45751;51.380;10.326;2023-01-13T03:22:00;8.30;99.90
59881;DHT22;45751;51.380;10.326;2023-01-13T03:30:02;8.40;99.90
59881;DHT22;45751;51.380;10.326;2023-01-13T03:32:33;8.30;99.90
59881;DHT22;45751;51.380;10.326;2023-01-13T03:37:32;8.30;99.90
59881;DHT22;45751;51.380;10.326;2023-01-13T03:40:07;8.30;99.90
59881;DHT22;45751;51.380;10.326;2023-01-13T03:42:37;8.30;99.90
59881;DHT22;45751;51.380;10.326;2023-01-13T03:45:12;8.40;99.90
59881;DHT22;45751;51.380;10.326;2023-01-13T03:47:53;8.30;99.90
59881;DHT22;45751;51.380;10.326;2023-01-13T03:50:28;8.30;99.90
59881;DHT22;45751;51.380;10.326;2023-01-13T03:53:09;8.30;99.90
59881;DHT22;45751;51.380;10.326;2023-01-13T03:55:40;8.30;99.90
59881;DHT22;45751;51.380;10.326;2023-01-13T03:58:18;8.30;99.90
59881;DHT22;45751;51.380;10.326;2023-01-13T04:00:56;8.30;99.90
59881;DHT22;45751;51.380;10.326;2023-01-13T04:03:39;8.40;99.90
59881;DHT22;45751;51.380;10.326;2023-01-13T04:08:54;8.40;99.90
59881;DHT22;45751;51.380;10.326;2023-01-13T04:11:36;8.40;99.90
59881;DHT22;45751;51.380;10.326;2023-01-13T04:14:07;8.40;99.90
59881;DHT22;45751;51.380;10.326;2023-01-13T04:16:35;8.50;99.90
59881;DHT22;45751;51.380;10.326;2023-01-13T04:19:03;8.40;99.90
59881;DHT22;45751;51.380;10.326;2023-01-13T04:21:30;8.30;99.90
59881;DHT22;45751;51.380;10.326;2023-01-13T04:23:57;8.20;99.90
59881;DHT22;45751;51.380;10.326;2023-01-13T04:26:24;8.00;99.90
59881;DHT22;45751;51.380;10.326;2023-01-13T04:28:50;7.80;99.90
59881;DHT22;45751;51.380;10.326;2023-01-13T04:31:20;7.60;99.90
59881;DHT22;45751;51.380;10.326;2023-01-13T04:33:47;7.50;99.90
59881;DHT22;45751;51.380;10.326;2023-01-13T04:36:14;7.40;99.90
59881;DHT22;45751;51.380;10.326;2023-01-13T04:38:41;7.40;99.90
59881;DHT22;45751;51.380;10.326;2023-01-13T04:41:09;7.30;99.90
59881;DHT22;45751;51.380;10.326;2023-01-13T04:43:41;7.20;99.90
59881;DHT22;45751;51.380;10.326;2023-01-13T04:46:08;7.10;99.90
59881;DHT22;45751;51.380;10.326;2023-01-13T04:48:35;7.10;99.90
59881;DHT22;45751;51.380;10.326;2023-01-13T04:51:02;7.10;99.90
59881;DHT22;45751;51.380;10.326;2023-01-13T04:53:28;7.00;99.90
59881;DHT22;45751;51.380;10.326;2023-01-13T04:55:55;7.00;99.90
59881;DHT22;45751;51.380;10.326;2023-01-13T04:58:22;7.10;99.90
59881;DHT22;45751;51.380;10.326;2023-01-13T05:00:49;6.90;99.90
59881;DHT22;45751;51.380;10.326;2023-01-13T05:03:16;6.90;99.90
59881;DHT22;45751;51.380;10.326;2023-01-13T05:05:44;6.90;99.90
59881;DHT22;45751;51.380;10.326;2023-01-13T05:08:11;6.70;99.90
59881;DHT22;45751;51.380;10.326;2023-01-13T05:10:38;6.90;99.90
59881;DHT22;45751;51.380;10.326;2023-01-13T05:13:05;6.80;99.90
59881;DHT22;45751;51.380;10.326;2023-01-13T05:15:50;6.80;99.90
59881;DHT22;45751;51.380;10.326;2023-01-13T05:18:49;6.80;99.90
59881;DHT22;45751;51.380;10.326;2023-01-13T05:21:16;6.80;99.90
59881;DHT22;45751;51.380;10.326;2023-01-13T05:24:01;6.70;99.90
59881;DHT22;45751;51.380;10.326;2023-01-13T05:26:47;6.80;99.90
59881;DHT22;45751;51.380;10.326;2023-01-13T05:29:14;6.70;99.90
59881;DHT22;45751;51.380;10.326;2023-01-13T05:31:41;6.70;99.90
59881;DHT22;45751;51.380;10.326;2023-01-13T05:34:07;6.70;99.90
59881;DHT22;45751;51.380;10.326;2023-01-13T05:36:34;6.70;99.90
59881;DHT22;45751;51.380;10.326;2023-01-13T05:39:01;6.70;99.90
59881;DHT22;45751;51.380;10.326;2023-01-13T05:41:28;6.70;99.90
59881;DHT22;45751;51.380;10.326;2023-01-13T05:44:13;6.60;99.90
59881;DHT22;45751;51.380;10.326;2023-01-13T05:46:41;6.60;99.90
59881;DHT22;45751;51.380;10.326;2023-01-13T05:49:08;6.60;99.90
59881;DHT22;45751;51.380;10.326;2023-01-13T05:51:34;6.60;99.90
59881;DHT22;45751;51.380;10.326;2023-01-13T05:54:01;6.50;99.90
59881;DHT22;45751;51.380;10.326;2023-01-13T05:56:28;6.50;99.90
59881;DHT22;45751;51.380;10.326;2023-01-13T05:58:55;6.50;99.90
59881;DHT22;45751;51.380;10.326;2023-01-13T06:01:22;6.50;99.90
59881;DHT22;45751;51.380;10.326;2023-01-13T06:03:49;6.50;99.90
59881;DHT22;45751;51.380;10.326;2023-01-13T06:06:16;6.40;99.90
59881;DHT22;45751;51.380;10.326;2023-01-13T06:08:42;6.50;99.90
59881;DHT22;45751;51.380;10.326;2023-01-13T06:11:09;6.50;99.90
59881;DHT22;45751;51.380;10.326;2023-01-13T06:13:36;6.50;99.90
59881;DHT22;45751;51.380;10.326;2023-01-13T06:16:03;6.50;99.90
59881;DHT22;45751;51.380;10.326;2023-01-13T06:18:30;6.50;99.90
59881;DHT22;45751;51.380;10.326;2023-01-13T06:20:57;6.50;99.90
59881;DHT22;45751;51.380;10.326;2023-01-13T06:23:24;6.50;99.90
59881;DHT22;45751;51.380;10.326;2023-01-13T06:28:25;6.50;99.90
59881;DHT22;45751;51.380;10.326;2023-01-13T06:30:56;6.50;99.90
59881;DHT22;45751;51.380;10.326;2023-01-13T06:33:28;6.50;99.90
59881;DHT22;45751;51.380;10.326;2023-01-13T06:36:00;6.50;99.90
59881;DHT22;45751;51.380;10.326;2023-01-13T06:38:30;6.40;99.90
59881;DHT22;45751;51.380;10.326;2023-01-13T06:40:59;6.40;99.90
59881;DHT22;45751;51.380;10.326;2023-01-13T06:43:26;6.30;99.90
59881;DHT22;45751;51.380;10.326;2023-01-13T06:45:54;6.20;99.90
59881;DHT22;45751;51.380;10.326;2023-01-13T06:48:24;6.30;99.90
59881;DHT22;45751;51.380;10.326;2023-01-13T06:50:51;6.30;99.90
59881;DHT22;45751;51.380;10.326;2023-01-13T06:53:19;6.20;99.90
59881;DHT22;45751;51.380;10.326;2023-01-13T06:55:45;6.20;99.90
59881;DHT22;45751;51.380;10.326;2023-01-13T06:58:12;6.20;99.90
59881;DHT22;45751;51.380;10.326;2023-01-13T07:00:39;6.10;99.90
59881;DHT22;45751;51.380;10.326;2023-01-13T07:03:11;6.10;99.90
59881;DHT22;45751;51.380;10.326;2023-01-13T07:05:40;6.10;99.90
59881;DHT22;45751;51.380;10.326;2023-01-13T07:08:09;6.10;99.90
59881;DHT22;45751;51.380;10.326;2023-01-13T07:10:36;6.10;99.90
59881;DHT22;45751;51.380;10.326;2023-01-13T07:13:04;6.10;99.90
59881;DHT22;45751;51.380;10.326;2023-01-13T07:15:58;6.10;99.90
59881;DHT22;45751;51.380;10.326;2023-01-13T07:18:27;6.10;99.90
59881;DHT22;45751;51.380;10.326;2023-01-13T07:20:55;6.10;99.90
59881;DHT22;45751;51.380;10.326;2023-01-13T07:23:24;6.10;99.90
59881;DHT22;45751;51.380;10.326;2023-01-13T07:25:53;6.00;99.90
59881;DHT22;45751;51.380;10.326;2023-01-13T07:28:19;6.00;99.90
59881;DHT22;45751;51.380;10.326;2023-01-13T07:30:46;6.00;99.90
59881;DHT22;45751;51.380;10.326;2023-01-13T07:33:13;6.00;99.90
59881;DHT22;45751;51.380;10.326;2023-01-13T07:35:40;6.00;99.90
59881;DHT22;45751;51.380;10.326;2023-01-13T07:38:07;5.90;99.90
59881;DHT22;45751;51.380;10.326;2023-01-13T07:40:34;6.00;99.90
59881;DHT22;45751;51.380;10.326;2023-01-13T07:43:01;5.90;99.90
59881;DHT22;45751;51.380;10.326;2023-01-13T07:45:47;6.00;99.90
59881;DHT22;45751;51.380;10.326;2023-01-13T07:48:14;5.90;99.90
59881;DHT22;45751;51.380;10.326;2023-01-13T07:50:40;5.90;99.90
59881;DHT22;45751;51.380;10.326;2023-01-13T07:53:09;5.90;99.90
59881;DHT22;45751;51.380;10.326;2023-01-13T07:55:40;5.90;99.90
59881;DHT22;45751;51.380;10.326;2023-01-13T07:58:09;5.90;99.90
59881;DHT22;45751;51.380;10.326;2023-01-13T08:00:37;5.80;99.90
59881;DHT22;45751;51.380;10.326;2023-01-13T08:03:04;5.90;99.90
59881;DHT22;45751;51.380;10.326;2023-01-13T08:05:34;5.90;99.90
59881;DHT22;45751;51.380;10.326;2023-01-13T08:08:01;5.80;99.90
59881;DHT22;45751;51.380;10.326;2023-01-13T08:10:28;5.80;99.90
59881;DHT22;45751;51.380;10.326;2023-01-13T08:12:54;5.80;99.90
59881;DHT22;45751;51.380;10.326;2023-01-13T08:15:40;5.80;99.90
59881;DHT22;45751;51.380;10.326;2023-01-13T08:18:07;5.80;99.90
59881;DHT22;45751;51.380;10.326;2023-01-13T08:20:34;5.80;99.90
59881;DHT22;45751;51.380;10.326;2023-01-13T08:23:00;5.80;99.90
59881;DHT22;45751;51.380;10.326;2023-01-13T08:25:28;5.80;99.90
59881;DHT22;45751;51.380;10.326;2023-01-13T08:27:55;5.80;99.90
59881;DHT22;45751;51.380;10.326;2023-01-13T08:30:22;5.70;99.90
59881;DHT22;45751;51.380;10.326;2023-01-13T08:32:49;5.80;99.90
59881;DHT22;45751;51.380;10.326;2023-01-13T08:35:16;5.70;99.90
59881;DHT22;45751;51.380;10.326;2023-01-13T08:37:44;5.70;99.90
59881;DHT22;45751;51.380;10.326;2023-01-13T08:40:13;5.70;99.90
59881;DHT22;45751;51.380;10.326;2023-01-13T08:42:40;5.60;99.90
59881;DHT22;45751;51.380;10.326;2023-01-13T08:45:08;5.60;99.90
59881;DHT22;45751;51.380;10.326;2023-01-13T08:47:35;5.60;99.90
59881;DHT22;45751;51.380;10.326;2023-01-13T08:50:03;5.70;99.90
59881;DHT22;45751;51.380;10.326;2023-01-13T08:52:31;5.60;99.90
59881;DHT22;45751;51.380;10.326;2023-01-13T08:54:57;5.70;99.90
59881;DHT22;45751;51.380;10.326;2023-01-13T08:57:24;5.60;99.90
59881;DHT22;45751;51.380;10.326;2023-01-13T08:59:51;5.70;99.90
59881;DHT22;45751;51.380;10.326;2023-01-13T09:02:20;5.70;99.90
59881;DHT22;45751;51.380;10.326;2023-01-13T09:04:48;5.70;99.90
59881;DHT22;45751;51.380;10.326;2023-01-13T09:07:15;5.70;99.90
59881;DHT22;45751;51.380;10.326;2023-01-13T09:09:42;5.70;99.90
59881;DHT22;45751;51.380;10.326;2023-01-13T09:12:14;5.80;99.90
59881;DHT22;45751;51.380;10.326;2023-01-13T09:15:01;5.80;99.90
59881;DHT22;45751;51.380;10.326;2023-01-13T09:17:28;5.80;99.90
59881;DHT22;45751;51.380;10.326;2023-01-13T09:19:55;5.80;99.90
59881;DHT22;45751;51.380;10.326;2023-01-13T09:22:22;5.80;99.90
59881;DHT22;45751;51.380;10.326;2023-01-13T09:24:53;5.90;99.90
59881;DHT22;45751;51.380;10.326;2023-01-13T09:27:20;5.90;99.90
59881;DHT22;45751;51.380;10.326;2023-01-13T09:29:48;5.80;99.90
59881;DHT22;45751;51.380;10.326;2023-01-13T09:32:15;5.90;99.90
59881;DHT22;45751;51.380;10.326;2023-01-13T09:34:42;5.90;99.90
59881;DHT22;45751;51.380;10.326;2023-01-13T09:37:34;5.90;99.90
59881;DHT22;45751;51.380;10.326;2023-01-13T09:40:03;6.00;99.90
59881;DHT22;45751;51.380;10.326;2023-01-13T09:42:53;6.00;99.90
59881;DHT22;45751;51.380;10.326;2023-01-13T09:45:47;6.00;99.90
59881;DHT22;45751;51.380;10.326;2023-01-13T09:48:33;6.10;99.90
59881;DHT22;45751;51.380;10.326;2023-01-13T09:51:16;6.10;99.90
59881;DHT22;45751;51.380;10.326;2023-01-13T09:53:53;6.10;99.90
59881;DHT22;45751;51.380;10.326;2023-01-13T09:56:24;6.10;99.90
59881;DHT22;45751;51.380;10.326;2023-01-13T09:58:51;6.10;99.90
59881;DHT22;45751;51.380;10.326;2023-01-13T10:04:19;6.20;99.90
59881;DHT22;45751;51.380;10.326;2023-01-13T10:06:49;6.20;99.90
59881;DHT22;45751;51.380;10.326;2023-01-13T10:09:39;6.30;99.90
59881;DHT22;45751;51.380;10.326;2023-01-13T10:12:15;6.30;99.90
59881;DHT22;45751;51.380;10.326;2023-01-13T10:15:01;6.30;99.90
59881;DHT22;45751;51.380;10.326;2023-01-13T10:17:52;6.30;99.90
59881;DHT22;45751;51.380;10.326;2023-01-13T10:20:23;6.40;99.40
59881;DHT22;45751;51.380;10.326;2023-01-13T10:25:53;6.40;98.30
59881;DHT22;45751;51.380;10.326;2023-01-13T10:28:26;6.40;97.20
59881;DHT22;45751;51.380;10.326;2023-01-13T10:30:53;6.50;97.10
59881;DHT22;45751;51.380;10.326;2023-01-13T10:33:27;6.50;96.20
59881;DHT22;45751;51.380;10.326;2023-01-13T10:38:45;6.60;95.70
59881;DHT22;45751;51.380;10.326;2023-01-13T10:44:01;6.60;94.10
59881;DHT22;45751;51.380;10.326;2023-01-13T10:46:35;6.70;93.60
59881;DHT22;45751;51.380;10.326;2023-01-13T10:49:36;6.70;93.50
59881;DHT22;45751;51.380;10.326;2023-01-13T10:52:24;6.80;93.40
59881;DHT22;45751;51.380;10.326;2023-01-13T10:54:52;6.90;93.00
59881;DHT22;45751;51.380;10.326;2023-01-13T10:57:25;6.90;92.60
59881;DHT22;45751;51.380;10.326;2023-01-13T10:59:53;6.90;92.40
59881;DHT22;45751;51.380;10.326;2023-01-13T11:02:29;6.90;91.90
59881;DHT22;45751;51.380;10.326;2023-01-13T11:10:25;7.10;91.50
59881;DHT22;45751;51.380;10.326;2023-01-13T11:13:13;7.00;91.80
59881;DHT22;45751;51.380;10.326;2023-01-13T11:16:04;7.00;91.10
59881;DHT22;45751;51.380;10.326;2023-01-13T11:18:45;7.00;91.10
59881;DHT22;45751;51.380;10.326;2023-01-13T11:27:00;7.10;90.50
59881;DHT22;45751;51.380;10.326;2023-01-13T11:32:13;7.00;90.10
59881;DHT22;45751;51.380;10.326;2023-01-13T11:34:45;7.00;90.60
59881;DHT22;45751;51.380;10.326;2023-01-13T11:37:19;7.00;90.50
59881;DHT22;45751;51.380;10.326;2023-01-13T11:42:30;7.10;90.10
59881;DHT22;45751;51.380;10.326;2023-01-13T11:47:59;7.10;89.90
59881;DHT22;45751;51.380;10.326;2023-01-13T12:01:39;7.20;90.20
59881;DHT22;45751;51.380;10.326;2023-01-13T12:04:27;7.20;90.30
59881;DHT22;45751;51.380;10.326;2023-01-13T12:23:42;7.50;88.10
59881;DHT22;45751;51.380;10.326;2023-01-13T12:26:12;7.60;88.20
59881;DHT22;45751;51.380;10.326;2023-01-13T12:31:10;7.70;85.70
59881;DHT22;45751;51.380;10.326;2023-01-13T12:38:57;7.60;83.70
59881;DHT22;45751;51.380;10.326;2023-01-13T12:45:04;7.40;88.70
59881;DHT22;45751;51.380;10.326;2023-01-13T12:55:25;7.10;90.90
59881;DHT22;45751;51.380;10.326;2023-01-13T12:58:01;7.10;90.40
59881;DHT22;45751;51.380;10.326;2023-01-13T13:14:05;7.10;91.90
59881;DHT22;45751;51.380;10.326;2023-01-13T13:16:44;7.20;91.40
59881;DHT22;45751;51.380;10.326;2023-01-13T13:29:59;7.50;86.70
59881;DHT22;45751;51.380;10.326;2023-01-13T13:40:57;7.50;85.20
59881;DHT22;45751;51.380;10.326;2023-01-13T13:43:44;7.50;85.40
59881;DHT22;45751;51.380;10.326;2023-01-13T13:46:32;7.50;85.20
59881;DHT22;45751;51.380;10.326;2023-01-13T13:49:20;7.60;85.80
59881;DHT22;45751;51.380;10.326;2023-01-13T13:52:01;7.50;84.40
59881;DHT22;45751;51.380;10.326;2023-01-13T13:54:30;7.50;84.70
59881;DHT22;45751;51.380;10.326;2023-01-13T13:56:58;7.50;86.40
59881;DHT22;45751;51.380;10.326;2023-01-13T13:59:27;7.50;86.10
59881;DHT22;45751;51.380;10.326;2023-01-13T14:02:00;7.50;88.80
59881;DHT22;45751;51.380;10.326;2023-01-13T14:04:35;7.40;90.00
59881;DHT22;45751;51.380;10.326;2023-01-13T14:07:17;7.30;90.00
59881;DHT22;45751;51.380;10.326;2023-01-13T14:09:49;7.30;90.50
59881;DHT22;45751;51.380;10.326;2023-01-13T14:12:24;7.20;90.40
59881;DHT22;45751;51.380;10.326;2023-01-13T14:14:52;7.10;90.90
59881;DHT22;45751;51.380;10.326;2023-01-13T14:17:28;7.00;91.00
59881;DHT22;45751;51.380;10.326;2023-01-13T14:20:04;7.10;90.90
59881;DHT22;45751;51.380;10.326;2023-01-13T14:22:33;7.00;91.20
59881;DHT22;45751;51.380;10.326;2023-01-13T14:25:00;7.00;91.40
59881;DHT22;45751;51.380;10.326;2023-01-13T14:27:29;6.90;91.30
59881;DHT22;45751;51.380;10.326;2023-01-13T14:29:57;6.90;91.60
59881;DHT22;45751;51.380;10.326;2023-01-13T14:32:35;6.90;91.50
59881;DHT22;45751;51.380;10.326;2023-01-13T14:35:07;6.90;91.40
59881;DHT22;45751;51.380;10.326;2023-01-13T14:37:39;6.90;91.50
59881;DHT22;45751;51.380;10.326;2023-01-13T14:43:03;6.90;91.00
59881;DHT22;45751;51.380;10.326;2023-01-13T14:45:36;6.90;90.70
59881;DHT22;45751;51.380;10.326;2023-01-13T14:48:07;6.90;90.30
59881;DHT22;45751;51.380;10.326;2023-01-13T14:50:34;7.00;90.00
59881;DHT22;45751;51.380;10.326;2023-01-13T14:53:01;7.00;90.00
59881;DHT22;45751;51.380;10.326;2023-01-13T14:55:29;7.00;89.00
59881;DHT22;45751;51.380;10.326;2023-01-13T14:58:16;7.00;88.30
59881;DHT22;45751;51.380;10.326;2023-01-13T15:00:43;7.00;88.20
59881;DHT22;45751;51.380;10.326;2023-01-13T15:03:13;7.00;87.40
59881;DHT22;45751;51.380;10.326;2023-01-13T15:05:43;7.00;86.70
59881;DHT22;45751;51.380;10.326;2023-01-13T15:10:50;7.10;86.20
59881;DHT22;45751;51.380;10.326;2023-01-13T15:15:57;7.10;86.10
59881;DHT22;45751;51.380;10.326;2023-01-13T15:18:25;7.10;85.70
59881;DHT22;45751;51.380;10.326;2023-01-13T15:20:52;7.10;86.90
59881;DHT22;45751;51.380;10.326;2023-01-13T15:23:20;7.10;86.10
59881;DHT22;45751;51.380;10.326;2023-01-13T15:25:48;7.20;85.80
59881;DHT22;45751;51.380;10.326;2023-01-13T15:28:18;7.20;85.60
59881;DHT22;45751;51.380;10.326;2023-01-13T15:30:47;7.20;85.70
59881;DHT22;45751;51.380;10.326;2023-01-13T15:33:14;7.20;85.70
59881;DHT22;45751;51.380;10.326;2023-01-13T15:35:48;7.20;85.80
59881;DHT22;45751;51.380;10.326;2023-01-13T15:38:18;7.20;86.10
59881;DHT22;45751;51.380;10.326;2023-01-13T15:40:46;7.20;86.90
59881;DHT22;45751;51.380;10.326;2023-01-13T15:43:15;7.20;87.50
59881;DHT22;45751;51.380;10.326;2023-01-13T15:46:16;7.20;88.60
59881;DHT22;45751;51.380;10.326;2023-01-13T15:49:05;7.30;89.40
59881;DHT22;45751;51.380;10.326;2023-01-13T15:51:36;7.10;89.00
59881;DHT22;45751;51.380;10.326;2023-01-13T15:54:05;7.10;90.00
59881;DHT22;45751;51.380;10.326;2023-01-13T15:56:34;7.10;90.00
59881;DHT22;45751;51.380;10.326;2023-01-13T15:59:03;7.10;90.80
59881;DHT22;45751;51.380;10.326;2023-01-13T16:01:30;7.00;92.00
59881;DHT22;45751;51.380;10.326;2023-01-13T16:03:57;7.10;93.40
59881;DHT22;45751;51.380;10.326;2023-01-13T16:06:28;7.00;95.50
59881;DHT22;45751;51.380;10.326;2023-01-13T16:09:14;6.90;97.70
59881;DHT22;45751;51.380;10.326;2023-01-13T16:11:42;6.70;99.50
59881;DHT22;45751;51.380;10.326;2023-01-13T16:14:09;6.50;99.90
59881;DHT22;45751;51.380;10.326;2023-01-13T16:16:36;6.40;99.90
59881;DHT22;45751;51.380;10.326;2023-01-13T16:19:03;6.20;99.90
59881;DHT22;45751;51.380;10.326;2023-01-13T16:21:30;6.10;99.90
59881;DHT22;45751;51.380;10.326;2023-01-13T16:23:57;6.10;99.90
59881;DHT22;45751;51.380;10.326;2023-01-13T16:26:28;6.00;99.90
59881;DHT22;45751;51.380;10.326;2023-01-13T16:28:56;5.90;99.90
59881;DHT22;45751;51.380;10.326;2023-01-13T16:31:32;5.90;99.90
59881;DHT22;45751;51.380;10.326;2023-01-13T16:34:01;5.90;99.90
59881;DHT22;45751;51.380;10.326;2023-01-13T16:36:30;5.80;99.90
59881;DHT22;45751;51.380;10.326;2023-01-13T16:38:59;5.80;99.90
59881;DHT22;45751;51.380;10.326;2023-01-13T16:41:26;5.80;99.90
59881;DHT22;45751;51.380;10.326;2023-01-13T16:43:53;5.80;99.90
59881;DHT22;45751;51.380;10.326;2023-01-13T16:48:47;5.80;99.90
59881;DHT22;45751;51.380;10.326;2023-01-13T16:51:15;5.80;99.90
59881;DHT22;45751;51.380;10.326;2023-01-13T16:53:42;5.80;99.90
59881;DHT22;45751;51.380;10.326;2023-01-13T16:56:36;5.80;99.90
59881;DHT22;45751;51.380;10.326;2023-01-13T16:59:08;5.80;99.90
59881;DHT22;45751;51.380;10.326;2023-01-13T17:01:37;5.80;99.90
59881;DHT22;45751;51.380;10.326;2023-01-13T17:04:05;5.90;99.90
59881;DHT22;45751;51.380;10.326;2023-01-13T17:06:42;5.90;99.90
59881;DHT22;45751;51.380;10.326;2023-01-13T17:09:19;5.90;99.90
59881;DHT22;45751;51.380;10.326;2023-01-13T17:11:46;5.80;99.90
59881;DHT22;45751;51.380;10.326;2023-01-13T17:14:13;5.80;99.90
59881;DHT22;45751;51.380;10.326;2023-01-13T17:16:45;5.90;99.90
59881;DHT22;45751;51.380;10.326;2023-01-13T17:19:13;5.90;99.90
59881;DHT22;45751;51.380;10.326;2023-01-13T17:21:40;6.00;99.90
59881;DHT22;45751;51.380;10.326;2023-01-13T17:24:08;5.90;99.90
59881;DHT22;45751;51.380;10.326;2023-01-13T17:26:41;5.90;99.90
59881;DHT22;45751;51.380;10.326;2023-01-13T17:29:15;5.90;99.90
59881;DHT22;45751;51.380;10.326;2023-01-13T17:31:43;5.90;99.90
59881;DHT22;45751;51.380;10.326;2023-01-13T17:34:11;5.90;99.90
59881;DHT22;45751;51.380;10.326;2023-01-13T17:36:41;5.80;99.90
59881;DHT22;45751;51.380;10.326;2023-01-13T17:39:20;5.90;99.90
59881;DHT22;45751;51.380;10.326;2023-01-13T17:41:47;5.80;99.90
59881;DHT22;45751;51.380;10.326;2023-01-13T17:44:16;5.90;99.90
59881;DHT22;45751;51.380;10.326;2023-01-13T17:46:43;5.80;99.90
59881;DHT22;45751;51.380;10.326;2023-01-13T17:49:11;5.80;99.90
59881;DHT22;45751;51.380;10.326;2023-01-13T17:51:38;5.80;99.90
59881;DHT22;45751;51.380;10.326;2023-01-13T17:54:07;5.80;99.90
59881;DHT22;45751;51.380;10.326;2023-01-13T17:56:38;5.80;99.90
59881;DHT22;45751;51.380;10.326;2023-01-13T17:59:05;5.80;99.90
59881;DHT22;45751;51.380;10.326;2023-01-13T18:01:36;5.80;99.90
59881;DHT22;45751;51.380;10.326;2023-01-13T18:04:03;5.80;99.90
59881;DHT22;45751;51.380;10.326;2023-01-13T18:06:30;5.80;99.90
59881;DHT22;45751;51.380;10.326;2023-01-13T18:08:58;5.90;99.90
59881;DHT22;45751;51.380;10.326;2023-01-13T18:11:26;5.90;99.90
59881;DHT22;45751;51.380;10.326;2023-01-13T18:13:54;5.90;99.90
59881;DHT22;45751;51.380;10.326;2023-01-13T18:16:23;5.90;99.90
59881;DHT22;45751;51.380;10.326;2023-01-13T18:18:52;5.90;99.90
59881;DHT22;45751;51.380;10.326;2023-01-13T18:21:42;5.90;99.90
59881;DHT22;45751;51.380;10.326;2023-01-13T18:24:28;5.90;99.90
59881;DHT22;45751;51.380;10.326;2023-01-13T18:27:15;6.00;99.90
59881;DHT22;45751;51.380;10.326;2023-01-13T18:29:45;5.90;99.90
59881;DHT22;45751;51.380;10.326;2023-01-13T18:32:12;6.00;99.90
59881;DHT22;45751;51.380;10.326;2023-01-13T18:34:39;6.00;99.90
59881;DHT22;45751;51.380;10.326;2023-01-13T18:37:08;6.00;99.90
59881;DHT22;45751;51.380;10.326;2023-01-13T18:39:35;5.90;99.90